createdAt,value
2023-01-02T00:00:22.390Z,13.06
2023-01-02T00:02:51.518Z,13.08
2023-01-02T00:05:21.912Z,13.34
2023-01-02T00:07:50.490Z,13.09
2023-01-02T00:10:19.561Z,13.15
2023-01-02T00:12:48.587Z,12.91
2023-01-02T00:15:17.568Z,12.84
2023-01-02T00:17:46.495Z,12.86
2023-01-02T00:20:15.408Z,13.03
2023-01-02T00:22:45.446Z,13.16
2023-01-02T00:25:14.033Z,13.24
2023-01-02T00:27:43.010Z,12.89
2023-01-02T00:30:13.366Z,12.64
2023-01-02T00:32:41.993Z,13.00
2023-01-02T00:35:11.230Z,13.09
2023-01-02T00:37:40.026Z,13.11
2023-01-02T00:40:14.121Z,13.10
2023-01-02T00:42:43.342Z,13.27
2023-01-02T00:45:12.813Z,13.30
2023-01-02T00:47:41.847Z,13.13
2023-01-02T00:50:10.834Z,13.32
2023-01-02T00:52:39.474Z,12.92
2023-01-02T00:55:10.558Z,12.76
2023-01-02T00:57:41.670Z,13.13
2023-01-02T01:00:11.600Z,13.01
2023-01-02T01:02:40.797Z,13.21
2023-01-02T01:05:10.532Z,13.39
2023-01-02T01:07:39.176Z,12.90
2023-01-02T01:10:09.897Z,13.22
2023-01-02T01:12:38.981Z,13.11
2023-01-02T01:15:09.282Z,12.99
2023-01-02T01:17:38.292Z,12.80
2023-01-02T01:20:08.551Z,13.22
2023-01-02T01:22:37.309Z,13.16
2023-01-02T01:25:07.113Z,13.04
2023-01-02T01:27:37.541Z,13.23
2023-01-02T01:30:08.678Z,13.00
2023-01-02T01:32:37.384Z,13.03
2023-01-02T01:35:08.972Z,12.88
2023-01-02T01:37:40.186Z,12.90
2023-01-02T01:40:09.903Z,12.75
2023-01-02T01:42:40.307Z,12.76
2023-01-02T01:45:14.164Z,13.02
2023-01-02T01:47:45.519Z,12.82
2023-01-02T01:50:18.203Z,12.69
2023-01-02T01:52:49.414Z,12.65
2023-01-02T01:55:21.061Z,12.57
2023-01-02T01:57:54.458Z,12.51
2023-01-02T02:00:23.461Z,12.76
2023-01-02T02:02:55.368Z,13.00
2023-01-02T02:05:26.719Z,12.89
2023-01-02T02:08:01.212Z,12.78
2023-01-02T02:10:30.222Z,12.73
2023-01-02T02:13:00.639Z,12.44
2023-01-02T02:15:29.702Z,12.78
2023-01-02T02:18:06.486Z,12.74
2023-01-02T02:20:40.538Z,12.75
2023-01-02T02:23:56.101Z,12.64
2023-01-02T02:27:00.030Z,12.50
2023-01-02T02:30:02.356Z,12.44
2023-01-02T02:32:45.843Z,12.67
2023-01-02T02:35:23.397Z,12.67
2023-01-02T02:37:56.779Z,12.56
2023-01-02T02:40:34.515Z,12.58
2023-01-02T02:43:09.365Z,13.01
2023-01-02T02:45:48.631Z,12.91
2023-01-02T02:48:23.201Z,12.76
2023-01-02T02:50:56.132Z,12.93
2023-01-02T02:53:26.376Z,12.62
2023-01-02T02:55:56.868Z,13.22
2023-01-02T02:58:27.109Z,13.27
2023-01-02T03:01:04.263Z,13.24
2023-01-02T03:03:33.470Z,13.18
2023-01-02T03:06:10.268Z,13.05
2023-01-02T03:08:45.636Z,13.17
2023-01-02T03:11:15.288Z,12.71
2023-01-02T03:13:50.350Z,13.11
2023-01-02T03:16:25.310Z,13.12
2023-01-02T03:18:56.979Z,12.93
2023-01-02T03:21:31.596Z,12.93
2023-01-02T03:24:05.381Z,12.69
2023-01-02T03:26:35.868Z,12.71
2023-01-02T03:29:09.622Z,12.72
2023-01-02T03:31:41.945Z,12.68
2023-01-02T03:34:12.988Z,12.34
2023-01-02T03:36:43.879Z,12.64
2023-01-02T03:39:14.855Z,13.01
2023-01-02T03:41:46.449Z,12.68
2023-01-02T03:44:16.045Z,12.56
2023-01-02T03:46:50.110Z,12.78
2023-01-02T03:49:22.597Z,12.73
2023-01-02T03:51:51.880Z,12.81
2023-01-02T03:54:21.210Z,13.01
2023-01-02T03:56:57.097Z,12.86
2023-01-02T03:59:35.015Z,12.34
2023-01-02T04:02:10.705Z,11.99
2023-01-02T04:04:48.564Z,11.97
2023-01-02T04:07:23.981Z,12.54
2023-01-02T04:09:53.863Z,12.29
2023-01-02T04:12:24.316Z,12.43
2023-01-02T04:14:59.345Z,12.85
2023-01-02T04:17:32.132Z,12.82
2023-01-02T04:20:04.128Z,13.00
2023-01-02T04:22:36.508Z,13.19
2023-01-02T04:25:08.709Z,13.22
2023-01-02T04:27:39.907Z,13.24
2023-01-02T04:30:09.593Z,13.22
2023-01-02T04:32:43.333Z,13.36
2023-01-02T04:35:13.771Z,13.38
2023-01-02T04:37:44.584Z,13.44
2023-01-02T04:40:19.021Z,13.46
2023-01-02T04:42:48.104Z,13.29
2023-01-02T04:45:18.341Z,13.17
2023-01-02T04:47:50.791Z,13.09
2023-01-02T04:50:20.061Z,12.51
2023-01-02T04:52:48.718Z,12.26
2023-01-02T04:55:17.820Z,12.29
2023-01-02T04:57:46.773Z,12.75
2023-01-02T05:00:16.868Z,12.45
2023-01-02T05:02:46.016Z,12.22
2023-01-02T05:05:17.243Z,12.41
2023-01-02T05:07:45.993Z,12.36
2023-01-02T05:10:15.330Z,12.21
2023-01-02T05:12:44.364Z,12.15
2023-01-02T05:15:13.820Z,12.40
2023-01-02T05:17:44.129Z,12.41
2023-01-02T05:20:13.493Z,12.12
2023-01-02T05:23:01.965Z,12.41
2023-01-02T05:25:34.083Z,12.16
2023-01-02T05:28:03.789Z,12.26
2023-01-02T05:30:32.797Z,12.27
2023-01-02T05:33:01.876Z,12.21
2023-01-02T05:35:33.287Z,11.96
2023-01-02T05:38:04.348Z,12.12
2023-01-02T05:40:32.883Z,12.26
2023-01-02T05:43:02.663Z,11.79
2023-01-02T05:45:32.319Z,11.71
2023-01-02T05:48:01.371Z,11.25
2023-01-02T05:50:30.363Z,11.19
2023-01-02T05:52:59.411Z,11.58
2023-01-02T05:55:29.543Z,11.19
2023-01-02T05:57:59.443Z,11.42
2023-01-02T06:00:28.560Z,11.42
2023-01-02T06:02:57.690Z,10.69
2023-01-02T06:05:26.736Z,10.63
2023-01-02T06:07:55.367Z,11.02
2023-01-02T06:10:24.342Z,11.00
2023-01-02T06:12:54.827Z,11.03
2023-01-02T06:15:23.874Z,10.88
2023-01-02T06:17:52.939Z,11.30
2023-01-02T06:20:21.925Z,10.83
2023-01-02T06:22:51.660Z,10.69
2023-01-02T06:25:20.664Z,10.91
2023-01-02T06:27:49.585Z,11.17
2023-01-02T06:30:20.126Z,10.94
2023-01-02T06:32:49.322Z,10.59
2023-01-02T06:35:18.377Z,10.78
2023-01-02T06:37:47.061Z,10.64
2023-01-02T06:40:16.250Z,10.70
2023-01-02T06:42:45.417Z,10.77
2023-01-02T06:45:14.482Z,10.40
2023-01-02T06:47:44.912Z,10.61
2023-01-02T06:50:13.980Z,10.24
2023-01-02T06:52:42.608Z,9.70
2023-01-02T06:55:11.671Z,9.74
2023-01-02T06:57:40.728Z,10.03
2023-01-02T07:00:11.293Z,9.72
2023-01-02T07:02:42.321Z,9.85
2023-01-02T07:05:13.025Z,9.89
2023-01-02T07:07:41.961Z,9.61
2023-01-02T07:10:11.574Z,10.07
2023-01-02T07:12:40.624Z,9.88
2023-01-02T07:15:10.054Z,10.31
2023-01-02T07:17:39.107Z,10.63
2023-01-02T07:20:09.027Z,10.17
2023-01-02T07:22:39.194Z,10.23
2023-01-02T07:25:09.290Z,10.62
2023-01-02T07:27:38.436Z,10.54
2023-01-02T07:30:09.042Z,10.59
2023-01-02T07:32:38.057Z,10.62
2023-01-02T07:35:08.167Z,10.91
2023-01-02T07:37:38.268Z,10.69
2023-01-02T07:40:08.545Z,11.24
2023-01-02T07:42:37.878Z,10.97
2023-01-02T07:45:08.347Z,10.99
2023-01-02T07:47:37.571Z,11.58
2023-01-02T07:50:07.537Z,11.12
2023-01-02T07:52:36.283Z,11.98
2023-01-02T07:55:08.041Z,12.11
2023-01-02T07:57:37.257Z,11.73
2023-01-02T08:00:07.331Z,12.36
2023-01-02T08:02:41.113Z,11.97
2023-01-02T08:05:11.584Z,12.20
2023-01-02T08:07:44.838Z,12.00
2023-01-02T08:10:16.414Z,12.32
2023-01-02T08:12:45.583Z,11.92
2023-01-02T08:15:14.761Z,12.32
2023-01-02T08:17:43.956Z,12.82
2023-01-02T08:20:13.178Z,13.30
2023-01-02T08:22:41.885Z,13.19
2023-01-02T08:25:11.599Z,13.45
2023-01-02T08:27:43.382Z,13.38
2023-01-02T08:30:13.442Z,12.78
2023-01-02T08:32:43.295Z,12.91
2023-01-02T08:35:12.511Z,12.83
2023-01-02T08:37:45.436Z,13.06
2023-01-02T08:40:17.738Z,12.77
2023-01-02T08:42:48.426Z,12.49
2023-01-02T08:45:17.665Z,13.01
2023-01-02T08:47:46.778Z,13.53
2023-01-02T08:50:15.908Z,13.95
2023-01-02T08:52:44.605Z,13.25
2023-01-02T08:55:13.771Z,14.04
2023-01-02T08:57:42.942Z,13.36
2023-01-02T09:00:15.656Z,13.99
2023-01-02T09:02:44.845Z,13.39
2023-01-02T09:05:14.042Z,13.24
2023-01-02T09:07:43.345Z,12.63
2023-01-02T09:10:12.853Z,12.18
2023-01-02T09:12:41.986Z,13.30
2023-01-02T09:15:11.810Z,13.27
2023-01-02T09:17:42.386Z,12.98
2023-01-02T09:20:11.722Z,13.43
2023-01-02T09:22:40.771Z,13.53
2023-01-02T09:25:10.456Z,13.86
2023-01-02T09:27:39.417Z,14.04
2023-01-02T09:30:09.185Z,14.73
2023-01-02T09:32:38.511Z,15.12
2023-01-02T09:35:10.142Z,14.53
2023-01-02T09:37:38.818Z,15.48
2023-01-02T09:40:09.071Z,16.21
2023-01-02T09:42:38.074Z,15.41
2023-01-02T09:45:09.275Z,16.40
2023-01-02T09:47:41.146Z,17.89
2023-01-02T09:50:16.692Z,17.56
2023-01-02T09:52:47.331Z,16.60
2023-01-02T09:55:17.684Z,15.71
2023-01-02T10:02:16.569Z,14.80
2023-01-02T10:05:03.323Z,14.14
2023-01-02T10:07:39.737Z,14.17
2023-01-02T10:10:11.989Z,13.95
2023-01-02T10:12:47.564Z,14.28
2023-01-02T10:15:20.646Z,14.13
2023-01-02T10:17:53.159Z,14.32
2023-01-02T10:20:27.854Z,14.22
2023-01-02T10:23:01.025Z,14.68
2023-01-02T10:25:33.863Z,15.05
2023-01-02T10:28:08.744Z,14.55
2023-01-02T10:30:41.895Z,14.95
2023-01-02T10:33:14.657Z,14.72
2023-01-02T10:35:45.423Z,14.94
2023-01-02T10:38:17.551Z,14.96
2023-01-02T10:40:47.984Z,14.98
2023-01-02T10:43:17.482Z,15.01
2023-01-02T10:45:46.556Z,14.59
2023-01-02T10:48:15.688Z,14.88
2023-01-02T10:50:48.565Z,14.25
2023-01-02T10:53:24.597Z,14.57
2023-01-02T10:55:53.717Z,14.60
2023-01-02T10:58:24.777Z,14.13
2023-01-02T11:01:06.032Z,14.23
2023-01-02T11:03:35.453Z,13.90
2023-01-02T11:06:25.684Z,14.27
2023-01-02T11:09:00.813Z,14.28
2023-01-02T11:11:31.239Z,14.13
2023-01-02T11:14:08.356Z,14.48
2023-01-02T11:16:39.779Z,14.82
2023-01-02T11:19:27.432Z,15.30
2023-01-02T11:21:58.917Z,14.27
2023-01-02T11:24:29.883Z,14.21
2023-01-02T11:27:02.271Z,14.19
2023-01-02T11:29:33.547Z,14.39
2023-01-02T11:32:03.899Z,14.83
2023-01-02T11:34:36.049Z,14.61
2023-01-02T11:37:07.820Z,14.94
2023-01-02T11:39:38.706Z,14.83
2023-01-02T11:42:35.691Z,14.88
2023-01-02T11:45:08.296Z,14.48
2023-01-02T11:47:40.743Z,14.31
2023-01-02T11:50:13.125Z,14.37
2023-01-02T11:52:45.342Z,14.42
2023-01-02T11:55:23.989Z,14.54
2023-01-02T11:57:58.159Z,14.56
2023-01-02T12:00:32.882Z,14.98
2023-01-02T12:03:05.837Z,14.81
2023-01-02T12:05:53.067Z,15.10
2023-01-02T12:08:29.350Z,14.81
2023-01-02T12:11:05.616Z,15.09
2023-01-02T12:13:49.326Z,14.82
2023-01-02T12:16:28.462Z,14.76
2023-01-02T12:19:10.007Z,14.87
2023-01-02T12:21:44.630Z,14.95
2023-01-02T12:24:51.097Z,15.49
2023-01-02T12:27:27.050Z,15.53
2023-01-02T12:30:11.955Z,15.22
2023-01-02T12:33:07.983Z,15.54
2023-01-02T12:36:00.333Z,15.48
2023-01-02T12:38:35.711Z,15.75
2023-01-02T12:41:15.945Z,15.41
2023-01-02T12:44:04.904Z,15.76
2023-01-02T12:46:45.874Z,15.86
2023-01-02T12:49:29.333Z,15.72
2023-01-02T12:52:05.339Z,16.01
2023-01-02T12:54:52.136Z,15.85
2023-01-02T12:57:26.298Z,15.96
2023-01-02T13:00:06.727Z,16.03
2023-01-02T13:02:41.912Z,15.98
2023-01-02T13:05:16.281Z,15.81
2023-01-02T13:07:49.130Z,15.82
2023-01-02T13:10:20.462Z,15.82
2023-01-02T13:12:50.964Z,15.87
2023-01-02T13:15:24.581Z,16.01
2023-01-02T13:18:00.590Z,16.00
2023-01-02T13:20:41.384Z,15.94
2023-01-02T13:23:24.191Z,15.96
2023-01-02T13:25:55.323Z,16.46
2023-01-02T13:28:24.954Z,15.60
2023-01-02T13:33:56.414Z,15.78
2023-01-02T13:36:28.552Z,16.16
2023-01-02T13:39:00.210Z,16.06
2023-01-02T13:41:30.772Z,15.66
2023-01-02T13:44:02.621Z,15.44
2023-01-02T13:47:02.696Z,15.91
2023-01-02T13:49:28.094Z,15.88
2023-01-02T13:52:00.193Z,15.73
2023-01-02T13:54:37.252Z,15.93
2023-01-02T13:57:32.460Z,15.48
2023-01-02T14:00:02.459Z,15.45
2023-01-02T14:02:42.491Z,15.77
2023-01-02T14:05:48.539Z,15.68
2023-01-02T14:08:25.037Z,15.95
2023-01-02T14:10:55.782Z,15.51
2023-01-02T14:13:30.938Z,15.69
2023-01-02T14:16:24.699Z,15.90
2023-01-02T14:19:18.271Z,15.97
2023-01-02T14:21:50.750Z,15.59
2023-01-02T14:24:29.560Z,15.87
2023-01-02T14:27:03.473Z,15.67
2023-01-02T14:29:33.490Z,15.38
2023-01-02T14:32:05.009Z,15.65
2023-01-02T14:34:35.735Z,15.35
2023-01-02T14:37:04.811Z,15.09
2023-01-02T14:39:37.039Z,15.28
2023-01-02T14:42:31.830Z,14.92
2023-01-02T14:45:05.407Z,14.92
2023-01-02T14:47:38.651Z,15.07
2023-01-02T14:50:13.328Z,15.09
2023-01-02T14:52:44.476Z,14.91
2023-01-02T14:55:18.462Z,14.96
2023-01-02T14:57:49.979Z,14.75
2023-01-02T15:00:26.302Z,14.81
2023-01-02T15:03:00.067Z,14.59
2023-01-02T15:05:35.694Z,14.80
2023-01-02T15:08:08.544Z,15.05
2023-01-02T15:10:55.851Z,14.80
2023-01-02T15:13:27.397Z,15.15
2023-01-02T15:15:59.800Z,15.06
2023-01-02T15:18:30.478Z,14.78
2023-01-02T15:21:08.712Z,14.95
2023-01-02T15:23:39.137Z,14.63
2023-01-02T15:26:32.860Z,14.75
2023-01-02T15:29:04.423Z,14.56
2023-01-02T15:31:33.931Z,14.78
2023-01-02T15:34:03.432Z,14.37
2023-01-02T15:36:39.738Z,14.49
2023-01-02T15:39:16.365Z,14.73
2023-01-02T15:41:47.926Z,14.60
2023-01-02T15:44:41.853Z,14.26
2023-01-02T15:47:10.913Z,14.28
2023-01-02T15:49:41.872Z,14.46
2023-01-02T15:52:21.126Z,14.28
2023-01-02T15:54:51.515Z,14.27
2023-01-02T15:57:21.445Z,13.96
2023-01-02T15:59:50.429Z,13.95
2023-01-02T16:02:37.475Z,13.97
2023-01-02T16:05:11.153Z,14.15
2023-01-02T16:07:41.918Z,14.27
2023-01-02T16:10:18.312Z,14.14
2023-01-02T16:12:52.262Z,14.18
2023-01-02T16:15:23.777Z,13.82
2023-01-02T16:17:54.189Z,13.95
2023-01-02T16:20:24.088Z,13.99
2023-01-02T16:22:56.207Z,13.96
2023-01-02T16:25:26.635Z,13.88
2023-01-02T16:27:57.252Z,13.77
2023-01-02T16:30:32.839Z,13.87
2023-01-02T16:33:03.809Z,13.73
2023-01-02T16:35:34.478Z,13.55
2023-01-02T16:38:06.154Z,13.65
2023-01-02T16:41:00.752Z,13.37
2023-01-02T16:43:34.408Z,13.68
2023-01-02T16:46:06.141Z,13.39
2023-01-02T16:48:38.200Z,13.41
2023-01-02T16:51:07.346Z,13.46
2023-01-02T16:53:38.092Z,13.47
2023-01-02T16:56:08.074Z,13.37
2023-01-02T16:58:36.850Z,13.48
2023-01-02T17:01:06.269Z,13.66
2023-01-02T17:03:35.378Z,13.44
2023-01-02T17:06:05.833Z,13.45
2023-01-02T17:08:35.386Z,13.19
2023-01-02T17:11:06.141Z,13.28
2023-01-02T17:13:34.784Z,13.22
2023-01-02T17:16:04.069Z,13.27
2023-01-02T17:18:33.081Z,13.26
2023-01-02T17:21:02.085Z,12.98
2023-01-02T17:23:31.441Z,12.90
2023-01-02T17:26:00.439Z,13.05
2023-01-02T17:28:30.884Z,13.14
2023-01-02T17:31:00.045Z,13.07
2023-01-02T17:33:29.111Z,13.21
2023-01-02T17:35:58.346Z,12.90
2023-01-02T17:38:27.329Z,13.03
2023-01-02T17:40:59.319Z,13.01
2023-01-02T17:43:29.790Z,13.02
2023-01-02T17:45:59.774Z,13.17
2023-01-02T17:48:28.813Z,13.12
2023-01-02T17:50:57.837Z,13.17
2023-01-02T17:53:26.829Z,13.34
2023-01-02T17:56:21.178Z,13.27
2023-01-02T17:58:47.956Z,13.25
2023-01-02T18:01:18.315Z,13.13
2023-01-02T18:03:47.538Z,13.09
2023-01-02T18:06:16.940Z,12.84
2023-01-02T18:08:46.497Z,13.34
2023-01-02T18:11:17.848Z,12.97
2023-01-02T18:13:50.743Z,13.37
2023-01-02T18:16:22.294Z,13.53
2023-01-02T18:18:53.388Z,13.24
2023-01-02T18:21:23.983Z,13.28
2023-01-02T18:23:57.134Z,13.53
2023-01-02T18:26:27.081Z,13.39
2023-01-02T18:29:05.651Z,13.22
2023-01-02T18:31:41.608Z,13.05
2023-01-02T18:34:45.809Z,13.32
2023-01-02T18:37:10.641Z,13.10
2023-01-02T18:39:43.456Z,13.08
2023-01-02T18:42:14.494Z,12.87
2023-01-02T18:44:45.654Z,13.09
2023-01-02T18:47:25.220Z,13.10
2023-01-02T18:49:55.191Z,13.00
2023-01-02T18:52:27.429Z,12.77
2023-01-02T18:55:02.377Z,12.79
2023-01-02T18:57:36.319Z,12.78
2023-01-02T19:00:20.286Z,12.90
2023-01-02T19:02:56.345Z,13.15
2023-01-02T19:05:28.006Z,13.08
2023-01-02T19:08:19.726Z,12.88
2023-01-02T19:10:51.379Z,12.86
2023-01-02T19:13:22.190Z,12.95
2023-01-02T19:15:55.769Z,13.02
2023-01-02T19:18:28.050Z,13.17
2023-01-02T19:21:07.399Z,12.78
2023-01-02T19:23:44.935Z,12.77
2023-01-02T19:26:21.172Z,12.86
2023-01-02T19:28:58.275Z,12.95
2023-01-02T19:31:31.180Z,12.76
2023-01-02T19:34:02.379Z,13.09
2023-01-02T19:36:37.606Z,12.93
2023-01-02T19:39:21.292Z,13.22
2023-01-02T19:42:09.251Z,13.01
2023-01-02T19:44:38.221Z,12.97
2023-01-02T19:47:08.639Z,13.48
2023-01-02T19:49:37.270Z,13.58
2023-01-02T19:52:06.441Z,13.49
2023-01-02T19:54:35.573Z,13.66
2023-01-02T19:57:04.613Z,13.59
2023-01-02T19:59:38.558Z,13.49
2023-01-02T20:02:12.349Z,13.53
2023-01-02T20:04:40.870Z,13.83
2023-01-02T20:07:10.532Z,13.67
2023-01-02T20:09:39.720Z,13.94
2023-01-02T20:12:26.057Z,13.92
2023-01-02T20:14:55.107Z,14.05
2023-01-02T20:17:25.521Z,13.88
2023-01-02T20:19:54.124Z,13.83
2023-01-02T20:22:23.119Z,13.96
2023-01-02T20:24:53.093Z,13.99
2023-01-02T20:27:22.627Z,13.66
2023-01-02T20:29:54.060Z,13.96
2023-01-02T20:32:25.355Z,14.16
2023-01-02T20:34:54.013Z,14.10
2023-01-02T20:37:23.019Z,14.24
2023-01-02T20:39:52.912Z,14.29
2023-01-02T20:42:22.510Z,14.09
2023-01-02T20:44:51.711Z,14.33
2023-01-02T20:47:21.682Z,14.45
2023-01-02T20:49:51.765Z,14.30
2023-01-02T20:52:21.336Z,14.07
2023-01-02T20:57:25.059Z,14.29
2023-01-02T20:59:55.308Z,13.90
2023-01-02T21:02:25.000Z,14.14
2023-01-02T21:04:55.568Z,14.31
2023-01-02T21:07:24.521Z,13.71
2023-01-02T21:09:57.642Z,13.83
2023-01-02T21:12:44.403Z,13.90
2023-01-02T21:15:34.182Z,13.76
2023-01-02T21:18:03.384Z,13.75
2023-01-02T21:20:33.928Z,13.68
2023-01-02T21:23:02.930Z,13.32
2023-01-02T21:25:31.721Z,13.81
2023-01-02T21:28:01.659Z,13.77
2023-01-02T21:30:30.645Z,13.45
2023-01-02T21:32:59.821Z,13.67
2023-01-02T21:35:28.830Z,13.70
2023-01-02T21:37:58.924Z,13.38
2023-01-02T21:40:27.947Z,13.54
2023-01-02T21:42:57.828Z,13.60
2023-01-02T21:45:26.884Z,13.81
2023-01-02T21:47:57.384Z,13.66
2023-01-02T21:50:26.697Z,13.69
2023-01-02T21:52:55.707Z,13.98
2023-01-02T21:55:26.774Z,14.01
2023-01-02T21:58:12.842Z,14.05
2023-01-02T22:00:42.700Z,13.90
2023-01-02T22:03:12.205Z,13.73
2023-01-02T22:05:41.539Z,13.91
2023-01-02T22:08:10.558Z,13.83
2023-01-02T22:10:41.321Z,14.02
2023-01-02T22:13:09.928Z,14.02
2023-01-02T22:15:38.992Z,13.59
2023-01-02T22:18:08.029Z,13.63
2023-01-02T22:20:37.082Z,13.65
2023-01-02T22:23:06.149Z,13.64
2023-01-02T22:25:34.839Z,13.53
2023-01-02T22:28:05.795Z,13.31
2023-01-02T22:30:35.431Z,13.22
2023-01-02T22:33:04.754Z,13.18
2023-01-02T22:35:34.400Z,13.44
2023-01-02T22:38:03.348Z,13.37
2023-01-02T22:40:31.945Z,13.39
2023-01-02T22:43:04.929Z,13.41
2023-01-02T22:45:38.444Z,13.35
2023-01-02T22:48:09.989Z,13.64
2023-01-02T22:50:43.658Z,13.39
2023-01-02T22:53:19.400Z,13.44
2023-01-02T22:55:48.089Z,13.51
2023-01-02T22:58:17.179Z,13.31
2023-01-02T23:00:48.732Z,13.14
2023-01-02T23:03:21.210Z,13.34
2023-01-02T23:05:50.258Z,13.27
2023-01-02T23:08:19.415Z,13.30
2023-01-02T23:10:48.079Z,13.06
2023-01-02T23:13:17.050Z,12.87
2023-01-02T23:16:10.492Z,12.95
2023-01-02T23:18:57.421Z,13.25
2023-01-02T23:21:27.684Z,12.82
2023-01-02T23:23:57.105Z,13.21
2023-01-02T23:26:28.801Z,13.04
2023-01-02T23:29:07.469Z,12.89
2023-01-02T23:31:39.763Z,13.10
2023-01-02T23:34:08.858Z,13.21
2023-01-02T23:36:38.175Z,13.14
2023-01-02T23:39:08.968Z,13.22
2023-01-02T23:41:38.184Z,13.21
2023-01-02T23:44:07.591Z,13.03
2023-01-02T23:46:37.624Z,13.47
2023-01-02T23:49:06.651Z,13.26
2023-01-02T23:51:35.907Z,13.35
2023-01-02T23:54:05.454Z,13.28
2023-01-02T23:56:36.199Z,13.11
2023-01-02T23:59:06.939Z,13.33
